CNP8 weather

Greenbank Airport
Greenbank, Ontario, Canada

Public forecast

Using degrees Celsius for public forecast. Weather courtesy of forecast.io.

Closest aviation weather report (METAR) to Greenbank Airport

Closest report is Toronto/Oshawa Executive Airport, 13.6 nm (25.3 km) SSE. Retrieved 2020/04/02 22:00 UTC (10 minutes ago):

CYOO 022200Z AUTO 33015G25KT 9SM CLR 12/M05 A2992 RMK SLP136

Closest aviation forecast (TAF) to Greenbank Airport

Closest forecast is Toronto/Oshawa Executive Airport, 13.6 nm (25.3 km) SSE. Retrieved 2020/04/02 20:00 UTC (2 hours ago):

TAF CYOO 021938Z 0220/0308 34012G22KT P6SM SKC BECMG 0222/0224 32010KT FM030300 33008KT P6SM FEW040 FM030600 35008KT P6SM FEW015 TEMPO 0306/0308 BKN015 RMK FCST BASED ON AUTO OBS NXT FCST BY 030200Z